Steuben, Indiana
Current Conditions -  °F | °C
As of 5:15 AM on Wednesday 26 Nov 2014 (Local Time) from KANQ Reporting Station
Overcast Overcast  
Wind Chill: 23°   Ceiling: 1700
Heat Index: 23°   Visibility: 10mi
Dew Point: 18°   Wind: 3mph
Humidity: 80%   Direction: 40°NE
Pressure: 30.16"   Gusts: NA
Location:  41.5331°N, 85.0482°W
Report Text: KANQ 261015Z AUTO 04003KT 10SM OVC017 M05/M08 A3016 RMK
Loading
Personal Weather Stations






























Interactive Weather Map New forecast layout! Learn more

10-Day Weather Forecast

Advertisements
Track Severe Weather on mobile